Time;durP1;ratioP1;P1;durP2;ratioP2;P2;SDS_P1;SDS_P2;PMS_P1;PMS_P2;Temp;Humidity;BMP_temperature;BMP_pressure;BME280_temperature;BME280_humidity;BME280_pressure;Samples;Min_cycle;Max_cycle;Signal;HPM_P1;HPM_P2
2020/12/29 00:01:32;;;;;;;1.20;0.90;;;4.90;47.20;;;;;;5055748;28;38353;-77
2020/12/29 00:04:03;;;;;;;1.27;0.97;;;4.90;47.20;;;;;;5055240;28;36252;-77
2020/12/29 00:06:30;;;;;;;1.17;0.83;;;4.90;47.30;;;;;;5062160;28;41142;-77
2020/12/29 00:08:57;;;;;;;1.17;1.07;;;4.90;47.20;;;;;;5035188;28;38866;-77
2020/12/29 00:11:24;;;;;;;0.80;0.63;;;4.90;47.30;;;;;;5064421;28;38559;-77
2020/12/29 00:13:51;;;;;;;0.80;0.60;;;4.90;47.40;;;;;;5074117;28;37072;-78
2020/12/29 00:16:18;;;;;;;0.97;0.73;;;4.90;47.60;;;;;;5056225;28;38386;-77
2020/12/29 00:18:46;;;;;;;1.10;0.83;;;4.90;47.70;;;;;;5074894;28;38665;-77
2020/12/29 00:21:20;;;;;;;0.90;0.70;;;4.90;47.50;;;;;;5057468;28;38946;-77
2020/12/29 00:23:48;;;;;;;1.00;0.80;;;4.90;47.50;;;;;;5036113;28;37140;-79
2020/12/29 00:26:15;;;;;;;0.80;0.80;;;4.80;47.70;;;;;;5053549;28;39648;-77
2020/12/29 00:28:42;;;;;;;0.90;0.70;;;4.90;47.80;;;;;;5061192;28;38790;-77
2020/12/29 00:31:17;;;;;;;1.87;1.20;;;4.90;47.60;;;;;;5056173;28;36950;-78
2020/12/29 00:33:44;;;;;;;1.10;0.90;;;4.80;47.80;;;;;;5071761;28;37864;-77
2020/12/29 00:36:11;;;;;;;0.70;0.70;;;4.70;48.60;;;;;;5069811;28;40594;-77
2020/12/29 00:38:38;;;;;;;1.50;0.80;;;4.60;48.30;;;;;;5056251;28;37830;-77
2020/12/29 00:41:07;;;;;;;1.00;0.70;;;4.50;48.30;;;;;;5074345;28;39224;-77
2020/12/29 00:43:35;;;;;;;1.13;0.70;;;4.40;48.40;;;;;;5056075;28;36651;-78
2020/12/29 00:46:05;;;;;;;1.40;0.70;;;4.40;48.50;;;;;;5073082;28;40516;-78
2020/12/29 00:48:33;;;;;;;1.30;1.00;;;4.40;48.70;;;;;;5055136;28;38013;-77
2020/12/29 00:51:08;;;;;;;0.80;0.70;;;4.40;48.70;;;;;;5041814;28;37838;-76
2020/12/29 00:53:41;;;;;;;1.03;0.80;;;4.40;48.50;;;;;;5051373;28;36748;-77
2020/12/29 00:56:10;;;;;;;0.90;0.60;;;4.50;48.40;;;;;;5054376;28;39334;-77
2020/12/29 00:58:38;;;;;;;0.90;0.70;;;4.60;48.70;;;;;;5055508;28;37880;-77
2020/12/29 01:01:10;;;;;;;0.90;0.60;;;4.60;48.30;;;;;;5046086;28;36697;-76
2020/12/29 01:03:43;;;;;;;2.03;0.77;;;4.70;48.40;;;;;;5035500;28;37407;-77
2020/12/29 01:06:10;;;;;;;0.80;0.60;;;4.80;48.20;;;;;;5042314;28;38746;-77
2020/12/29 01:08:37;;;;;;;0.90;0.70;;;4.90;48.00;;;;;;5055654;28;37877;-77
2020/12/29 01:11:05;;;;;;;0.80;0.63;;;4.90;47.90;;;;;;5055622;28;38218;-77
2020/12/29 01:13:45;;;;;;;1.77;0.97;;;5.00;47.90;;;;;;5056182;28;37389;-77
2020/12/29 01:16:14;;;;;;;0.77;0.70;;;5.10;48.00;;;;;;5054203;28;39543;-77
2020/12/29 01:18:44;;;;;;;0.67;0.53;;;5.10;47.60;;;;;;5055017;28;39008;-77
2020/12/29 01:21:11;;;;;;;0.70;0.60;;;5.10;47.80;;;;;;5064912;28;38338;-77
2020/12/29 01:23:38;;;;;;;1.00;0.60;;;5.10;48.00;;;;;;5071353;28;37102;-77
2020/12/29 01:26:07;;;;;;;1.47;0.63;;;5.20;47.80;;;;;;5069909;28;40270;-77
2020/12/29 01:28:37;;;;;;;0.80;0.63;;;5.20;47.60;;;;;;5065299;28;39853;-79
2020/12/29 01:31:04;;;;;;;0.80;0.60;;;5.10;47.80;;;;;;5035542;28;37573;-77
2020/12/29 01:33:31;;;;;;;0.70;0.50;;;5.20;48.00;;;;;;5035642;28;37061;-77
2020/12/29 01:35:58;;;;;;;1.00;0.83;;;5.20;47.90;;;;;;5067372;28;39727;-77
2020/12/29 01:38:25;;;;;;;0.70;0.60;;;5.20;47.70;;;;;;5073346;28;39974;-77
2020/12/29 01:40:58;;;;;;;0.80;0.70;;;5.30;47.90;;;;;;5073331;28;38522;-76
2020/12/29 01:43:29;;;;;;;1.10;0.70;;;5.30;47.60;;;;;;5055189;28;35655;-77
2020/12/29 01:45:57;;;;;;;0.87;0.80;;;5.30;47.80;;;;;;5055533;28;39265;-77
2020/12/29 01:48:26;;;;;;;0.80;0.70;;;5.30;48.00;;;;;;5054692;28;38230;-76
2020/12/29 01:50:53;;;;;;;1.17;0.50;;;5.20;48.40;;;;;;5065884;28;39315;-77
2020/12/29 01:53:20;;;;;;;1.00;0.70;;;5.20;48.20;;;;;;5073272;28;38186;-76
2020/12/29 01:55:47;;;;;;;0.90;0.80;;;5.30;48.00;;;;;;5053505;28;38538;-76
2020/12/29 01:58:14;;;;;;;0.80;0.63;;;5.30;47.90;;;;;;5073580;28;39983;-77
2020/12/29 02:00:42;;;;;;;0.80;0.70;;;5.30;47.60;;;;;;5053551;28;37987;-76
2020/12/29 02:03:13;;;;;;;0.87;0.70;;;5.30;47.60;;;;;;5054876;28;37090;-76
2020/12/29 02:05:42;;;;;;;1.00;0.50;;;5.20;47.60;;;;;;5065507;28;39690;-77
2020/12/29 02:08:09;;;;;;;1.40;0.63;;;5.20;48.00;;;;;;5052879;28;39334;-77
2020/12/29 02:10:36;;;;;;;0.80;0.60;;;5.10;48.10;;;;;;5044283;28;36863;-77
2020/12/29 02:13:03;;;;;;;0.93;0.50;;;5.10;48.20;;;;;;5073373;28;38502;-77
2020/12/29 02:15:30;;;;;;;1.80;0.70;;;5.00;48.30;;;;;;5055480;28;40130;-77
2020/12/29 02:17:58;;;;;;;1.60;0.50;;;4.90;48.40;;;;;;5071612;28;39347;-78
2020/12/29 02:20:25;;;;;;;1.60;0.80;;;4.90;48.60;;;;;;5071376;28;38092;-77
2020/12/29 02:22:54;;;;;;;0.90;0.70;;;5.00;48.80;;;;;;5070552;28;37289;-78
2020/12/29 02:25:21;;;;;;;0.80;0.50;;;5.00;48.80;;;;;;5065594;28;39573;-78
2020/12/29 02:27:49;;;;;;;0.90;0.70;;;5.00;48.80;;;;;;5059281;28;39292;-79
2020/12/29 02:30:19;;;;;;;0.70;0.50;;;5.10;48.90;;;;;;5056155;28;38987;-79
2020/12/29 02:32:47;;;;;;;0.97;0.70;;;5.10;48.80;;;;;;5058375;28;37185;-79
2020/12/29 02:35:15;;;;;;;0.90;0.60;;;5.10;48.60;;;;;;5060965;28;39858;-79
2020/12/29 02:37:43;;;;;;;1.20;0.60;;;5.20;48.60;;;;;;5055141;28;39014;-79
2020/12/29 02:40:11;;;;;;;0.80;0.67;;;5.20;48.50;;;;;;5069097;28;37990;-77
2020/12/29 02:42:38;;;;;;;0.70;0.50;;;5.10;48.70;;;;;;5056612;28;35949;-77
2020/12/29 02:45:06;;;;;;;0.70;0.50;;;5.10;48.80;;;;;;5069014;28;39677;-77
2020/12/29 02:47:33;;;;;;;0.70;0.43;;;5.20;48.70;;;;;;5054013;28;37782;-78
2020/12/29 02:50:00;;;;;;;0.63;0.50;;;5.30;48.50;;;;;;5070979;28;39216;-77
2020/12/29 02:52:27;;;;;;;0.60;0.40;;;5.30;48.20;;;;;;5071909;28;36906;-78
2020/12/29 02:54:54;;;;;;;0.70;0.50;;;5.30;48.20;;;;;;5072826;28;40462;-79
2020/12/29 02:57:21;;;;;;;0.70;0.50;;;5.30;48.30;;;;;;5072310;28;39017;-78
2020/12/29 02:59:51;;;;;;;0.60;0.50;;;5.30;48.20;;;;;;5065241;28;37667;-78
2020/12/29 03:02:18;;;;;;;0.70;0.50;;;5.40;48.10;;;;;;5078838;28;38801;-78
2020/12/29 03:04:45;;;;;;;0.70;0.50;;;5.40;48.10;;;;;;5080321;28;40552;-78
2020/12/29 03:07:12;;;;;;;1.00;0.50;;;5.50;48.00;;;;;;5052339;28;37720;-77
2020/12/29 03:09:39;;;;;;;0.60;0.40;;;5.50;48.10;;;;;;5080808;28;38807;-78
2020/12/29 03:12:06;;;;;;;0.70;0.40;;;5.60;48.50;;;;;;5081346;28;37615;-78
2020/12/29 03:14:34;;;;;;;0.60;0.40;;;5.70;48.40;;;;;;5079861;28;40019;-78
2020/12/29 03:17:01;;;;;;;0.80;0.50;;;5.70;48.40;;;;;;5063840;28;38298;-78
2020/12/29 03:19:30;;;;;;;0.60;0.40;;;5.70;48.40;;;;;;5062830;28;37718;-78
2020/12/29 03:21:58;;;;;;;0.60;0.40;;;5.70;48.50;;;;;;5069159;28;36940;-78
2020/12/29 03:24:25;;;;;;;1.30;0.40;;;5.70;49.00;;;;;;5080706;28;39956;-78
2020/12/29 03:26:54;;;;;;;0.60;0.40;;;5.70;49.60;;;;;;5078797;28;39319;-78
2020/12/29 03:29:23;;;;;;;0.60;0.40;;;5.70;50.10;;;;;;5069477;28;38209;-77
2020/12/29 03:31:51;;;;;;;2.00;0.50;;;5.70;50.70;;;;;;5079844;28;37214;-77
2020/12/29 03:34:22;;;;;;;0.60;0.40;;;5.70;49.50;;;;;;5080021;28;39852;-77
2020/12/29 03:36:49;;;;;;;1.67;0.50;;;5.60;49.50;;;;;;5068023;28;39091;-77
2020/12/29 03:39:17;;;;;;;0.60;0.30;;;5.70;49.40;;;;;;5062078;28;36520;-77
2020/12/29 03:41:44;;;;;;;0.60;0.40;;;5.70;48.70;;;;;;5078439;28;37426;-77
2020/12/29 03:44:11;;;;;;;0.70;0.40;;;5.70;48.90;;;;;;5075227;28;40654;-77
2020/12/29 03:46:38;;;;;;;0.80;0.40;;;5.70;49.20;;;;;;5064753;28;39617;-77
2020/12/29 03:49:06;;;;;;;0.60;0.50;;;5.70;49.20;;;;;;5074728;28;38842;-77
2020/12/29 03:51:33;;;;;;;0.73;0.40;;;5.70;49.20;;;;;;5078810;28;38138;-77
2020/12/29 03:54:00;;;;;;;0.60;0.40;;;5.60;48.80;;;;;;5079197;28;39527;-77
2020/12/29 03:56:27;;;;;;;0.60;0.40;;;5.60;48.10;;;;;;5066810;28;40230;-78
2020/12/29 03:58:54;;;;;;;0.60;0.40;;;5.60;48.40;;;;;;5079731;28;37662;-77
2020/12/29 04:01:22;;;;;;;0.90;0.60;;;5.60;48.60;;;;;;5076666;28;37417;-77
2020/12/29 04:03:51;;;;;;;0.60;0.40;;;5.70;48.80;;;;;;5071364;28;40785;-78
2020/12/29 04:06:19;;;;;;;0.90;0.50;;;5.70;49.10;;;;;;5076864;28;39605;-78
2020/12/29 04:08:49;;;;;;;0.60;0.40;;;5.70;48.90;;;;;;5078141;28;38211;-78
2020/12/29 04:11:16;;;;;;;0.80;0.50;;;5.70;49.20;;;;;;5079323;28;37061;-78
2020/12/29 04:13:43;;;;;;;0.70;0.40;;;5.60;49.40;;;;;;5076029;28;40064;-78
2020/12/29 04:16:11;;;;;;;0.70;0.40;;;5.50;49.50;;;;;;5081680;28;40086;-78
2020/12/29 04:18:38;;;;;;;1.33;0.60;;;5.50;49.70;;;;;;5079858;28;38033;-78
2020/12/29 04:21:05;;;;;;;0.80;0.40;;;5.40;49.70;;;;;;5078949;28;37855;-77
2020/12/29 04:23:33;;;;;;;2.50;0.40;;;5.30;49.70;;;;;;5081131;28;39439;-78
2020/12/29 04:26:00;;;;;;;0.93;0.60;;;5.30;50.30;;;;;;5060936;28;37493;-78
2020/12/29 04:28:27;;;;;;;0.63;0.40;;;5.20;49.40;;;;;;5085647;28;38169;-77
2020/12/29 04:30:54;;;;;;;1.33;0.60;;;5.10;49.20;;;;;;5060386;28;36050;-78
2020/12/29 04:33:21;;;;;;;1.37;0.60;;;5.10;48.90;;;;;;5075407;28;39949;-78
2020/12/29 04:35:48;;;;;;;0.70;0.47;;;5.10;48.90;;;;;;5077168;28;39211;-78
2020/12/29 04:38:15;;;;;;;1.03;0.40;;;5.00;48.90;;;;;;5055107;28;37097;-78
2020/12/29 04:40:45;;;;;;;0.70;0.43;;;5.20;48.10;;;;;;5063352;28;37331;-78
2020/12/29 04:43:12;;;;;;;1.10;0.50;;;5.30;48.40;;;;;;5075355;28;40584;-78
2020/12/29 04:45:39;;;;;;;0.90;0.50;;;5.40;47.70;;;;;;5073805;28;39138;-79
2020/12/29 04:48:06;;;;;;;0.60;0.40;;;5.40;47.50;;;;;;5074573;28;37884;-79
2020/12/29 04:50:37;;;;;;;4.60;0.60;;;5.60;47.50;;;;;;5071221;28;36106;-78
2020/12/29 04:53:08;;;;;;;0.60;0.40;;;5.70;47.40;;;;;;5062902;28;39616;-78
2020/12/29 04:55:42;;;;;;;0.80;0.50;;;5.80;47.40;;;;;;5071953;28;39834;-78
2020/12/29 04:58:10;;;;;;;0.60;0.40;;;5.80;49.00;;;;;;5070078;28;37920;-78
2020/12/29 05:00:37;;;;;;;1.40;0.57;;;5.80;49.00;;;;;;5070552;28;38196;-78
2020/12/29 05:03:04;;;;;;;0.90;0.50;;;5.80;49.40;;;;;;5073477;28;39160;-78
2020/12/29 05:05:32;;;;;;;2.40;0.60;;;5.80;49.70;;;;;;5072775;28;39309;-78
2020/12/29 05:07:59;;;;;;;0.70;0.50;;;5.80;49.70;;;;;;5071926;28;38905;-78
2020/12/29 05:10:26;;;;;;;1.20;0.40;;;5.70;49.70;;;;;;5074118;28;37101;-78
2020/12/29 05:12:53;;;;;;;1.37;0.60;;;5.70;49.20;;;;;;5054176;28;39710;-78
2020/12/29 05:15:22;;;;;;;1.23;0.43;;;5.70;50.60;;;;;;5072263;28;39136;-78
2020/12/29 05:17:49;;;;;;;0.80;0.50;;;5.70;50.00;;;;;;5073232;28;36894;-78
2020/12/29 05:20:20;;;;;;;0.60;0.40;;;5.60;49.90;;;;;;5071579;28;37993;-78
2020/12/29 05:22:48;;;;;;;1.37;0.40;;;5.60;50.20;;;;;;5070380;28;39636;-78
2020/12/29 05:25:17;;;;;;;1.43;0.40;;;5.50;49.90;;;;;;5072795;28;39801;-78
2020/12/29 05:27:45;;;;;;;0.60;0.40;;;5.50;50.20;;;;;;5066189;28;38766;-78
2020/12/29 05:30:12;;;;;;;0.70;0.40;;;5.50;50.60;;;;;;5030534;28;36665;-78
2020/12/29 05:32:43;;;;;;;0.63;0.40;;;5.50;51.50;;;;;;5072507;28;40333;-78
2020/12/29 05:35:11;;;;;;;1.50;0.90;;;5.50;51.80;;;;;;5054971;28;38905;-78
2020/12/29 05:37:39;;;;;;;0.60;0.40;;;5.40;51.60;;;;;;5070914;28;38052;-77
2020/12/29 05:40:25;;;;;;;1.00;0.57;;;5.50;51.90;;;;;;5073095;28;37087;-78
2020/12/29 05:42:54;;;;;;;0.60;0.40;;;5.50;51.80;;;;;;5070578;28;37962;-77
2020/12/29 05:45:24;;;;;;;0.80;0.40;;;5.50;51.40;;;;;;5072333;28;39101;-78
2020/12/29 05:47:56;;;;;;;0.70;0.40;;;5.50;51.90;;;;;;5072699;28;37925;-78
2020/12/29 05:50:23;;;;;;;0.70;0.40;;;5.50;52.50;;;;;;5069384;28;37124;-78
2020/12/29 05:52:55;;;;;;;0.93;0.60;;;5.50;52.70;;;;;;5073898;28;40672;-78
2020/12/29 05:55:22;;;;;;;1.10;0.50;;;5.50;53.00;;;;;;5072100;28;40108;-78
2020/12/29 05:58:01;;;;;;;0.70;0.50;;;5.50;52.80;;;;;;5071721;28;38845;-78
2020/12/29 06:00:28;;;;;;;0.73;0.40;;;5.40;52.80;;;;;;5070751;28;37943;-78
2020/12/29 06:02:58;;;;;;;2.00;0.70;;;5.40;53.00;;;;;;5077482;28;39676;-78
2020/12/29 06:05:26;;;;;;;1.07;0.50;;;5.30;52.90;;;;;;5067256;28;38139;-78
2020/12/29 06:07:54;;;;;;;1.17;0.50;;;5.30;53.00;;;;;;5079973;28;38096;-78
2020/12/29 06:10:22;;;;;;;0.70;0.40;;;5.30;52.70;;;;;;5071953;28;35835;-77
2020/12/29 06:12:54;;;;;;;1.83;0.50;;;5.30;52.60;;;;;;5084561;28;39864;-78
2020/12/29 06:15:26;;;;;;;0.70;0.40;;;5.30;52.30;;;;;;5077058;28;39026;-78
2020/12/29 06:17:56;;;;;;;1.33;0.50;;;5.30;52.40;;;;;;5069989;28;36985;-78
2020/12/29 06:20:24;;;;;;;1.27;0.60;;;5.30;53.30;;;;;;5084459;28;38830;-78
2020/12/29 06:22:54;;;;;;;0.93;0.60;;;5.30;53.00;;;;;;5091578;28;39830;-78
2020/12/29 06:25:22;;;;;;;2.20;0.83;;;5.30;53.70;;;;;;5080549;28;38888;-77
2020/12/29 06:27:52;;;;;;;2.57;0.63;;;5.30;53.60;;;;;;5059372;28;36933;-77
2020/12/29 06:30:20;;;;;;;0.77;0.50;;;5.20;53.60;;;;;;5091418;28;37643;-79
2020/12/29 06:32:49;;;;;;;2.80;0.60;;;5.20;53.20;;;;;;5088075;28;39834;-78
2020/12/29 06:35:18;;;;;;;3.20;0.80;;;5.20;53.50;;;;;;5035246;28;37884;-78
2020/12/29 06:37:52;;;;;;;1.67;0.80;;;5.20;53.10;;;;;;5051754;28;36579;-78
2020/12/29 06:40:21;;;;;;;1.30;0.50;;;5.20;53.30;;;;;;5075860;28;37776;-78
2020/12/29 06:42:51;;;;;;;2.30;0.73;;;5.20;53.70;;;;;;5050462;28;39974;-78
2020/12/29 06:45:18;;;;;;;1.70;0.60;;;5.20;54.60;;;;;;5081026;28;38755;-78
2020/12/29 06:47:47;;;;;;;0.70;0.50;;;5.20;54.60;;;;;;5057610;28;36729;-77
2020/12/29 06:50:25;;;;;;;3.53;1.10;;;5.20;54.80;;;;;;5086827;28;36617;-77
2020/12/29 06:53:03;;;;;;;1.63;0.83;;;5.20;55.30;;;;;;5075508;28;39710;-78
2020/12/29 06:55:35;;;;;;;1.27;0.60;;;5.20;55.40;;;;;;5086659;28;37515;-77
2020/12/29 06:58:02;;;;;;;3.53;0.80;;;5.10;55.70;;;;;;5089199;28;37924;-77
2020/12/29 07:00:29;;;;;;;2.77;0.90;;;5.10;55.90;;;;;;5094269;28;37121;-77
2020/12/29 07:02:56;;;;;;;3.50;0.80;;;5.10;55.70;;;;;;5096013;28;39958;-77
2020/12/29 07:05:26;;;;;;;1.20;0.70;;;5.10;55.30;;;;;;5088362;28;39863;-77
2020/12/29 07:07:58;;;;;;;1.63;0.70;;;5.10;55.00;;;;;;5074683;28;37929;-77
2020/12/29 07:10:34;;;;;;;2.20;0.50;;;5.10;55.00;;;;;;5081926;28;37421;-77
2020/12/29 07:13:06;;;;;;;1.37;0.60;;;5.10;54.20;;;;;;5078770;28;39780;-78
2020/12/29 07:15:45;;;;;;;1.00;0.50;;;5.20;53.10;;;;;;5093420;28;39053;-78
2020/12/29 07:18:16;;;;;;;1.60;0.60;;;5.20;53.60;;;;;;5057388;28;36669;-77
2020/12/29 07:20:48;;;;;;;1.07;0.60;;;5.20;53.70;;;;;;5076365;28;37130;-77
2020/12/29 07:23:18;;;;;;;2.27;1.60;;;5.30;53.60;;;;;;5070935;28;39449;-77
2020/12/29 07:25:46;;;;;;;0.60;0.50;;;5.30;53.80;;;;;;5075167;28;37738;-78
2020/12/29 07:28:19;;;;;;;2.00;0.70;;;5.30;53.60;;;;;;5063727;28;36898;-77
2020/12/29 07:30:46;;;;;;;0.60;0.47;;;5.30;53.70;;;;;;5089179;28;36702;-77
2020/12/29 07:33:13;;;;;;;4.17;0.63;;;5.40;53.70;;;;;;5071386;28;39911;-77
2020/12/29 07:35:40;;;;;;;1.30;0.57;;;5.30;53.60;;;;;;5083488;28;40199;-77
2020/12/29 07:38:13;;;;;;;2.97;0.80;;;5.30;53.70;;;;;;5072221;28;38691;-77
2020/12/29 07:40:41;;;;;;;2.40;1.20;;;5.30;52.90;;;;;;5055904;28;36730;-77
2020/12/29 07:43:08;;;;;;;3.60;0.90;;;5.30;52.80;;;;;;5074900;28;40677;-77
2020/12/29 07:45:35;;;;;;;1.93;0.83;;;5.30;53.00;;;;;;5057878;28;37973;-77
2020/12/29 07:48:04;;;;;;;2.47;0.80;;;5.40;53.10;;;;;;5074023;28;38028;-79
2020/12/29 07:50:32;;;;;;;1.67;0.60;;;5.50;53.10;;;;;;5082630;28;37722;-78
2020/12/29 07:53:03;;;;;;;5.80;0.70;;;5.40;52.20;;;;;;5089425;28;39383;-78
2020/12/29 07:55:31;;;;;;;1.40;0.50;;;5.40;52.70;;;;;;5078457;28;39592;-78
2020/12/29 07:58:01;;;;;;;1.30;0.60;;;5.50;53.40;;;;;;5075068;28;38961;-78
2020/12/29 08:00:29;;;;;;;1.93;0.80;;;5.50;53.40;;;;;;5076750;28;36359;-78
2020/12/29 08:02:56;;;;;;;5.77;1.07;;;5.50;53.80;;;;;;5057185;28;38239;-78
2020/12/29 08:05:24;;;;;;;1.57;0.60;;;5.60;54.00;;;;;;5059829;28;37849;-78
2020/12/29 08:07:55;;;;;;;2.50;0.70;;;5.60;53.90;;;;;;5092145;28;38145;-78
2020/12/29 08:10:24;;;;;;;4.23;0.97;;;5.70;53.60;;;;;;5084256;28;37052;-77
2020/12/29 08:12:58;;;;;;;1.90;0.60;;;5.70;53.30;;;;;;5089669;28;40350;-77
2020/12/29 08:15:26;;;;;;;1.93;0.50;;;5.80;53.00;;;;;;5080710;28;39166;-77
2020/12/29 08:18:05;;;;;;;2.70;0.50;;;6.00;52.00;;;;;;5064295;28;36604;-77
2020/12/29 08:20:33;;;;;;;1.33;0.60;;;6.20;51.60;;;;;;5090530;28;37233;-77
2020/12/29 08:23:06;;;;;;;1.00;0.60;;;6.40;50.90;;;;;;5086047;28;40529;-77
2020/12/29 08:25:33;;;;;;;2.03;0.70;;;6.50;50.50;;;;;;5073734;28;39056;-77
2020/12/29 08:28:03;;;;;;;1.90;0.70;;;6.60;50.00;;;;;;5061067;28;36911;-77
2020/12/29 08:30:31;;;;;;;1.13;0.57;;;6.60;49.40;;;;;;5091468;28;37462;-77
2020/12/29 08:33:01;;;;;;;1.67;0.60;;;6.70;49.20;;;;;;5078967;28;40075;-77
2020/12/29 08:35:34;;;;;;;0.80;0.40;;;6.70;48.70;;;;;;5075401;28;39598;-77
2020/12/29 08:38:12;;;;;;;1.00;0.50;;;6.70;48.50;;;;;;5071369;28;38910;-78
2020/12/29 08:40:44;;;;;;;0.83;0.60;;;6.70;48.40;;;;;;5055514;28;35647;-77
2020/12/29 08:43:16;;;;;;;1.70;0.70;;;6.80;48.70;;;;;;5045460;28;39942;-77
2020/12/29 08:45:44;;;;;;;1.13;0.70;;;6.80;48.30;;;;;;5072433;28;39619;-77
2020/12/29 08:48:16;;;;;;;2.07;0.90;;;6.90;48.20;;;;;;5055431;28;38150;-78
2020/12/29 08:50:43;;;;;;;1.10;0.70;;;6.90;48.30;;;;;;5055894;28;36838;-78
2020/12/29 08:53:10;;;;;;;1.00;0.70;;;7.00;48.70;;;;;;5072868;28;41359;-77
2020/12/29 08:55:39;;;;;;;2.57;1.30;;;7.00;47.10;;;;;;5075670;28;38921;-77
2020/12/29 08:58:06;;;;;;;3.03;2.13;;;7.10;47.60;;;;;;5055529;28;37108;-77
2020/12/29 09:00:44;;;;;;;2.00;0.73;;;7.10;47.20;;;;;;5082605;28;36975;-77
2020/12/29 09:03:22;;;;;;;0.70;0.40;;;7.20;46.30;;;;;;5055631;28;39705;-77
2020/12/29 09:05:51;;;;;;;1.50;0.60;;;7.20;46.10;;;;;;5060418;28;38064;-77
2020/12/29 09:08:29;;;;;;;1.07;0.43;;;7.20;46.40;;;;;;5058259;28;37785;-77
2020/12/29 09:11:09;;;;;;;0.80;0.40;;;7.20;46.00;;;;;;5046361;28;36371;-77
2020/12/29 09:13:36;;;;;;;0.90;0.53;;;7.20;45.80;;;;;;5066223;28;38309;-77
2020/12/29 09:16:11;;;;;;;1.23;0.47;;;7.10;45.80;;;;;;5059082;28;38870;-78
2020/12/29 09:18:42;;;;;;;1.30;0.60;;;7.10;46.10;;;;;;5069522;28;38200;-77
2020/12/29 09:21:19;;;;;;;3.40;0.73;;;7.10;45.90;;;;;;5073214;28;37128;-77
2020/12/29 09:23:57;;;;;;;0.80;0.60;;;7.10;46.40;;;;;;5054946;28;39646;-77
2020/12/29 09:26:24;;;;;;;0.60;0.50;;;7.10;46.70;;;;;;5058350;28;39117;-77
2020/12/29 09:28:51;;;;;;;0.70;0.40;;;7.10;46.70;;;;;;5073369;28;38532;-77
2020/12/29 09:31:25;;;;;;;0.97;0.43;;;7.10;46.60;;;;;;5072258;28;37097;-77
2020/12/29 09:33:52;;;;;;;0.70;0.50;;;7.10;46.50;;;;;;5067773;28;40219;-77
2020/12/29 09:36:20;;;;;;;1.23;0.50;;;7.10;46.60;;;;;;5071905;28;40025;-76
2020/12/29 09:38:48;;;;;;;0.83;0.50;;;7.00;46.70;;;;;;5053995;28;36778;-76
2020/12/29 09:41:15;;;;;;;0.60;0.40;;;7.00;47.20;;;;;;5054459;28;36915;-76
2020/12/29 09:43:44;;;;;;;2.93;0.70;;;7.00;47.10;;;;;;5071191;28;40536;-76
2020/12/29 09:46:11;;;;;;;1.37;0.60;;;7.00;47.50;;;;;;5070134;28;39512;-76
2020/12/29 09:48:39;;;;;;;2.40;0.60;;;6.80;49.90;;;;;;5067990;28;38031;-76
2020/12/29 09:51:09;;;;;;;1.63;0.70;;;6.50;52.60;;;;;;5053519;28;37923;-77
2020/12/29 09:53:36;;;;;;;5.37;0.90;;;6.30;54.70;;;;;;5072411;28;40418;-76
2020/12/29 09:56:03;;;;;;;1.10;0.60;;;5.90;55.40;;;;;;5066873;28;39340;-76
2020/12/29 09:58:30;;;;;;;1.37;0.60;;;5.40;56.80;;;;;;5048947;28;36796;-76
2020/12/29 10:00:57;;;;;;;1.23;0.60;;;5.00;58.80;;;;;;5069355;28;38086;-76
2020/12/29 10:03:25;;;;;;;1.53;0.70;;;4.90;60.70;;;;;;5054575;28;40703;-77
2020/12/29 10:05:55;;;;;;;3.40;0.70;;;4.80;61.30;;;;;;5065558;28;38834;-76
2020/12/29 10:08:22;;;;;;;1.93;0.57;;;4.80;62.40;;;;;;5070286;28;37915;-76
2020/12/29 10:10:50;;;;;;;1.47;0.70;;;4.80;62.60;;;;;;5070625;28;37759;-77
2020/12/29 10:13:17;;;;;;;1.27;0.60;;;4.80;62.90;;;;;;5068041;28;39935;-77
2020/12/29 10:15:48;;;;;;;0.83;0.60;;;4.90;62.70;;;;;;5070965;28;39182;-77
2020/12/29 10:18:15;;;;;;;1.00;0.73;;;5.00;63.50;;;;;;5071878;28;39082;-77
2020/12/29 10:20:42;;;;;;;3.17;0.90;;;5.20;63.90;;;;;;5071204;28;37372;-77
2020/12/29 10:23:10;;;;;;;2.10;0.90;;;5.20;63.00;;;;;;5054337;28;38669;-87
2020/12/29 10:25:36;;;;;;;1.77;0.70;;;5.30;63.10;;;;;;5054730;28;37881;-91
2020/12/29 10:28:03;;;;;;;1.90;0.90;;;5.30;62.70;;;;;;5057469;28;36594;-91
2020/12/29 10:30:31;;;;;;;1.13;0.60;;;5.30;61.80;;;;;;5054879;28;37405;-91
2020/12/29 10:32:58;;;;;;;0.90;0.50;;;5.40;60.90;;;;;;5076246;28;40210;-94
2020/12/29 10:35:25;;;;;;;1.20;0.50;;;5.50;60.50;;;;;;5070720;28;39258;-86
2020/12/29 10:37:52;;;;;;;0.70;0.47;;;5.60;60.30;;;;;;5070392;28;37862;-91
2020/12/29 10:40:22;;;;;;;11.73;0.90;;;5.60;60.50;;;;;;5063017;28;37941;-91
2020/12/29 10:42:49;;;;;;;0.70;0.50;;;5.70;59.20;;;;;;5072112;28;38482;-92
2020/12/29 10:45:16;;;;;;;0.83;0.50;;;5.80;59.20;;;;;;5058222;28;37666;-89
2020/12/29 10:47:43;;;;;;;0.90;0.60;;;6.00;58.60;;;;;;5052775;28;36858;-91
2020/12/29 10:50:10;;;;;;;1.33;0.57;;;6.00;57.80;;;;;;5049904;28;35744;-91
2020/12/29 10:52:37;;;;;;;0.97;0.60;;;6.10;57.10;;;;;;5077248;28;40120;-91
2020/12/29 10:55:04;;;;;;;1.33;0.60;;;6.30;55.80;;;;;;5058142;28;37682;-91
2020/12/29 10:57:33;;;;;;;1.30;0.80;;;6.60;55.20;;;;;;5058725;28;36674;-90
2020/12/29 11:00:00;;;;;;;0.97;0.60;;;6.80;54.90;;;;;;5058383;28;36335;-92
2020/12/29 11:02:27;;;;;;;0.77;0.50;;;7.00;54.30;;;;;;5078517;28;39565;-91
2020/12/29 11:04:54;;;;;;;1.00;0.60;;;7.10;53.70;;;;;;5088095;28;39454;-91
2020/12/29 11:07:21;;;;;;;0.60;0.40;;;7.20;52.30;;;;;;5075931;28;38031;-90
2020/12/29 11:09:48;;;;;;;2.20;0.60;;;7.20;51.10;;;;;;5057885;28;35902;-92
2020/12/29 11:12:15;;;;;;;1.10;0.80;;;7.30;51.90;;;;;;5073853;28;41075;-91
2020/12/29 11:14:43;;;;;;;1.00;0.80;;;7.50;50.80;;;;;;5070900;28;39484;-90
2020/12/29 11:17:10;;;;;;;0.90;0.60;;;7.50;50.30;;;;;;5046101;28;37629;-90
2020/12/29 11:19:55;;;;;;;1.87;0.70;;;7.60;50.60;;;;;;5077506;28;37513;-92
2020/12/29 11:22:22;;;;;;;0.70;0.40;;;7.90;50.30;;;;;;5073642;28;39921;-92
2020/12/29 11:24:49;;;;;;;1.40;0.60;;;8.20;50.10;;;;;;5066112;28;38770;-91
2020/12/29 11:27:16;;;;;;;0.70;0.50;;;8.40;49.50;;;;;;5060094;28;37665;-92
2020/12/29 11:29:44;;;;;;;2.70;0.60;;;8.30;48.10;;;;;;5047382;28;37246;-92
2020/12/29 11:32:13;;;;;;;0.70;0.50;;;8.20;48.50;;;;;;5075558;28;39749;-91
2020/12/29 11:34:43;;;;;;;2.27;0.47;;;8.00;48.40;;;;;;5075269;28;39499;-90
2020/12/29 11:37:10;;;;;;;0.90;0.50;;;7.80;48.80;;;;;;5078747;28;38059;-90
2020/12/29 11:39:37;;;;;;;0.70;0.50;;;7.70;48.40;;;;;;5069838;28;35997;-89
2020/12/29 11:42:04;;;;;;;0.70;0.50;;;7.50;48.60;;;;;;5090402;28;39818;-88
2020/12/29 11:44:31;;;;;;;0.70;0.40;;;7.50;48.90;;;;;;5092779;28;39419;-90
2020/12/29 11:46:59;;;;;;;1.00;0.40;;;7.50;48.90;;;;;;5079356;28;36732;-91
2020/12/29 11:49:26;;;;;;;0.80;0.43;;;7.50;49.20;;;;;;5095338;28;38184;-88
2020/12/29 11:51:56;;;;;;;0.70;0.50;;;7.40;49.50;;;;;;5093939;28;40738;-89
2020/12/29 11:54:23;;;;;;;1.43;0.50;;;7.40;49.60;;;;;;5080713;28;38561;-89
2020/12/29 11:59:59;;;;;;;1.63;0.53;;;7.20;49.90;;;;;;5078509;28;37183;-88
2020/12/29 12:02:27;;;;;;;0.93;0.60;;;7.20;50.90;;;;;;5079510;28;40854;-88
2020/12/29 12:04:54;;;;;;;0.80;0.60;;;7.20;50.80;;;;;;5078810;28;39204;-89
2020/12/29 12:07:21;;;;;;;0.90;0.73;;;7.20;51.20;;;;;;5078034;28;38530;-88
2020/12/29 12:09:48;;;;;;;0.80;0.50;;;7.40;51.10;;;;;;5083396;28;36981;-89
2020/12/29 12:12:15;;;;;;;1.63;1.00;;;7.40;50.40;;;;;;5088373;28;39566;-90
2020/12/29 12:14:42;;;;;;;1.20;0.53;;;7.40;50.20;;;;;;5087117;28;39156;-90
2020/12/29 12:17:09;;;;;;;0.80;0.60;;;7.40;50.10;;;;;;5092777;28;39358;-89
2020/12/29 12:19:37;;;;;;;1.13;0.63;;;7.40;50.30;;;;;;5083533;28;37312;-90
2020/12/29 12:22:06;;;;;;;1.77;0.60;;;7.40;50.30;;;;;;5051238;28;38469;-88
2020/12/29 12:24:34;;;;;;;1.03;0.60;;;7.40;50.30;;;;;;5066309;28;39338;-89
2020/12/29 12:27:01;;;;;;;0.87;0.57;;;7.40;50.70;;;;;;5052081;28;36651;-89
2020/12/29 12:29:28;;;;;;;0.80;0.50;;;7.40;50.70;;;;;;5067174;28;37425;-88
2020/12/29 12:31:55;;;;;;;1.63;0.87;;;7.50;51.00;;;;;;5048612;28;39353;-89
2020/12/29 12:34:22;;;;;;;1.10;0.80;;;7.60;51.00;;;;;;5045593;28;39944;-88
2020/12/29 12:36:52;;;;;;;1.50;0.90;;;7.70;51.50;;;;;;5070655;28;37167;-90
2020/12/29 12:39:19;;;;;;;1.07;0.97;;;7.70;51.40;;;;;;5048714;28;36133;-91
2020/12/29 12:41:47;;;;;;;0.90;0.60;;;7.70;51.40;;;;;;5078339;28;39939;-90
2020/12/29 12:44:14;;;;;;;0.97;0.80;;;7.80;51.80;;;;;;5063961;28;40290;-90
2020/12/29 12:46:41;;;;;;;1.57;0.70;;;7.90;50.40;;;;;;5061330;28;37001;-88
2020/12/29 12:49:09;;;;;;;2.00;1.07;;;7.90;50.10;;;;;;5071130;28;36779;-89
2020/12/29 12:51:36;;;;;;;1.10;0.70;;;7.70;50.00;;;;;;5076822;28;38121;-93
2020/12/29 12:54:05;;;;;;;1.53;0.90;;;7.50;50.50;;;;;;5082911;28;39466;-91
2020/12/29 12:56:42;;;;;;;1.97;1.03;;;7.30;50.90;;;;;;5074687;28;37736;-91
2020/12/29 12:59:10;;;;;;;3.60;0.70;;;7.10;51.50;;;;;;5065631;28;36137;-91
2020/12/29 13:01:37;;;;;;;1.97;0.63;;;7.10;51.70;;;;;;5068523;28;40794;-91
2020/12/29 13:04:04;;;;;;;1.50;0.77;;;7.20;51.80;;;;;;5069740;28;38891;-91
2020/12/29 13:06:31;;;;;;;1.70;1.00;;;7.20;51.50;;;;;;5054374;28;37511;-92
2020/12/29 13:08:59;;;;;;;0.90;0.70;;;7.30;51.70;;;;;;5074784;28;37263;-90